sensor_id;sensor_type;location;lat;lon;timestamp;P1;durP1;ratioP1;P2;durP2;ratioP2
20140;SDS011;10231;47.702;9.826;2023-03-01T00:02:18;26.93;;;19.87;;
20140;SDS011;10231;47.702;9.826;2023-03-01T00:04:44;27.53;;;20.60;;
20140;SDS011;10231;47.702;9.826;2023-03-01T00:07:10;26.43;;;21.13;;
20140;SDS011;10231;47.702;9.826;2023-03-01T00:09:36;25.27;;;18.73;;
20140;SDS011;10231;47.702;9.826;2023-03-01T00:12:02;29.17;;;20.70;;
20140;SDS011;10231;47.702;9.826;2023-03-01T00:14:28;30.53;;;21.23;;
20140;SDS011;10231;47.702;9.826;2023-03-01T00:16:54;26.60;;;19.97;;
20140;SDS011;10231;47.702;9.826;2023-03-01T00:19:20;29.47;;;20.43;;
20140;SDS011;10231;47.702;9.826;2023-03-01T00:21:47;25.03;;;20.07;;
20140;SDS011;10231;47.702;9.826;2023-03-01T00:24:13;25.37;;;19.80;;
20140;SDS011;10231;47.702;9.826;2023-03-01T00:26:39;28.53;;;21.43;;
20140;SDS011;10231;47.702;9.826;2023-03-01T00:29:05;29.40;;;20.73;;
20140;SDS011;10231;47.702;9.826;2023-03-01T00:31:31;28.40;;;21.30;;
20140;SDS011;10231;47.702;9.826;2023-03-01T00:33:58;28.40;;;19.77;;
20140;SDS011;10231;47.702;9.826;2023-03-01T00:36:28;29.13;;;21.63;;
20140;SDS011;10231;47.702;9.826;2023-03-01T00:38:56;29.17;;;21.30;;
20140;SDS011;10231;47.702;9.826;2023-03-01T00:41:22;29.13;;;20.67;;
20140;SDS011;10231;47.702;9.826;2023-03-01T00:43:48;28.03;;;21.07;;
20140;SDS011;10231;47.702;9.826;2023-03-01T00:46:16;30.43;;;22.60;;
20140;SDS011;10231;47.702;9.826;2023-03-01T00:48:44;30.23;;;22.23;;
20140;SDS011;10231;47.702;9.826;2023-03-01T00:51:14;28.03;;;21.00;;
20140;SDS011;10231;47.702;9.826;2023-03-01T00:53:41;30.23;;;21.43;;
20140;SDS011;10231;47.702;9.826;2023-03-01T00:56:09;27.13;;;20.90;;
20140;SDS011;10231;47.702;9.826;2023-03-01T00:58:36;29.90;;;21.73;;
20140;SDS011;10231;47.702;9.826;2023-03-01T01:01:07;29.30;;;21.40;;
20140;SDS011;10231;47.702;9.826;2023-03-01T01:03:42;29.03;;;21.40;;
20140;SDS011;10231;47.702;9.826;2023-03-01T01:06:13;31.60;;;22.27;;
20140;SDS011;10231;47.702;9.826;2023-03-01T01:08:42;32.47;;;22.03;;
20140;SDS011;10231;47.702;9.826;2023-03-01T01:11:11;26.93;;;21.17;;
20140;SDS011;10231;47.702;9.826;2023-03-01T01:13:38;27.47;;;20.83;;
20140;SDS011;10231;47.702;9.826;2023-03-01T01:16:04;29.63;;;21.60;;
20140;SDS011;10231;47.702;9.826;2023-03-01T01:18:30;31.80;;;22.13;;
20140;SDS011;10231;47.702;9.826;2023-03-01T01:20:56;29.40;;;21.10;;
20140;SDS011;10231;47.702;9.826;2023-03-01T01:23:22;28.80;;;21.40;;
20140;SDS011;10231;47.702;9.826;2023-03-01T01:25:47;29.93;;;20.93;;
20140;SDS011;10231;47.702;9.826;2023-03-01T01:28:13;30.73;;;21.50;;
20140;SDS011;10231;47.702;9.826;2023-03-01T01:30:38;28.83;;;20.60;;
20140;SDS011;10231;47.702;9.826;2023-03-01T01:33:04;30.10;;;21.30;;
20140;SDS011;10231;47.702;9.826;2023-03-01T01:35:29;30.10;;;21.33;;
20140;SDS011;10231;47.702;9.826;2023-03-01T01:37:55;29.93;;;21.90;;
20140;SDS011;10231;47.702;9.826;2023-03-01T01:40:21;31.10;;;21.43;;
20140;SDS011;10231;47.702;9.826;2023-03-01T01:42:46;29.93;;;20.77;;
20140;SDS011;10231;47.702;9.826;2023-03-01T01:45:24;31.47;;;22.10;;
20140;SDS011;10231;47.702;9.826;2023-03-01T01:48:01;32.43;;;22.20;;
20140;SDS011;10231;47.702;9.826;2023-03-01T01:50:35;33.10;;;22.57;;
20140;SDS011;10231;47.702;9.826;2023-03-01T01:53:17;32.23;;;21.87;;
20140;SDS011;10231;47.702;9.826;2023-03-01T01:55:45;32.70;;;22.10;;
20140;SDS011;10231;47.702;9.826;2023-03-01T01:58:17;32.77;;;23.13;;
20140;SDS011;10231;47.702;9.826;2023-03-01T02:00:44;30.30;;;21.87;;
20140;SDS011;10231;47.702;9.826;2023-03-01T02:03:11;32.90;;;21.63;;
20140;SDS011;10231;47.702;9.826;2023-03-01T02:05:53;30.60;;;21.80;;
20140;SDS011;10231;47.702;9.826;2023-03-01T02:08:25;30.87;;;20.87;;
20140;SDS011;10231;47.702;9.826;2023-03-01T02:10:52;31.67;;;23.13;;
20140;SDS011;10231;47.702;9.826;2023-03-01T02:13:19;30.80;;;22.33;;
20140;SDS011;10231;47.702;9.826;2023-03-01T02:15:45;30.13;;;21.60;;
20140;SDS011;10231;47.702;9.826;2023-03-01T02:18:12;32.63;;;23.17;;
20140;SDS011;10231;47.702;9.826;2023-03-01T02:21:02;31.37;;;21.20;;
20140;SDS011;10231;47.702;9.826;2023-03-01T02:23:38;31.60;;;22.90;;
20140;SDS011;10231;47.702;9.826;2023-03-01T02:26:06;33.30;;;22.57;;
20140;SDS011;10231;47.702;9.826;2023-03-01T02:28:38;32.60;;;21.30;;
20140;SDS011;10231;47.702;9.826;2023-03-01T02:31:08;32.30;;;22.00;;
20140;SDS011;10231;47.702;9.826;2023-03-01T02:33:54;38.80;;;23.53;;
20140;SDS011;10231;47.702;9.826;2023-03-01T02:36:25;28.57;;;21.03;;
20140;SDS011;10231;47.702;9.826;2023-03-01T02:38:58;31.67;;;22.13;;
20140;SDS011;10231;47.702;9.826;2023-03-01T02:41:26;32.43;;;22.23;;
20140;SDS011;10231;47.702;9.826;2023-03-01T02:43:55;32.73;;;22.27;;
20140;SDS011;10231;47.702;9.826;2023-03-01T02:46:22;32.53;;;21.53;;
20140;SDS011;10231;47.702;9.826;2023-03-01T02:48:51;30.47;;;21.33;;
20140;SDS011;10231;47.702;9.826;2023-03-01T02:56:32;34.13;;;23.27;;
20140;SDS011;10231;47.702;9.826;2023-03-01T02:58:58;31.33;;;21.63;;
20140;SDS011;10231;47.702;9.826;2023-03-01T03:01:26;31.73;;;21.23;;
20140;SDS011;10231;47.702;9.826;2023-03-01T03:04:03;30.77;;;21.37;;
20140;SDS011;10231;47.702;9.826;2023-03-01T03:06:30;34.07;;;21.87;;
20140;SDS011;10231;47.702;9.826;2023-03-01T03:08:55;31.53;;;20.97;;
20140;SDS011;10231;47.702;9.826;2023-03-01T03:11:21;29.23;;;21.43;;
20140;SDS011;10231;47.702;9.826;2023-03-01T03:13:46;28.80;;;21.17;;
20140;SDS011;10231;47.702;9.826;2023-03-01T03:16:13;27.70;;;19.97;;
20140;SDS011;10231;47.702;9.826;2023-03-01T03:18:39;30.57;;;21.53;;
20140;SDS011;10231;47.702;9.826;2023-03-01T03:21:07;30.90;;;21.43;;
20140;SDS011;10231;47.702;9.826;2023-03-01T03:23:35;29.73;;;21.07;;
20140;SDS011;10231;47.702;9.826;2023-03-01T03:26:01;28.63;;;20.17;;
20140;SDS011;10231;47.702;9.826;2023-03-01T03:28:29;31.00;;;21.57;;
20140;SDS011;10231;47.702;9.826;2023-03-01T03:30:55;31.53;;;21.63;;
20140;SDS011;10231;47.702;9.826;2023-03-01T03:33:21;30.50;;;21.07;;
20140;SDS011;10231;47.702;9.826;2023-03-01T03:35:48;30.30;;;20.77;;
20140;SDS011;10231;47.702;9.826;2023-03-01T03:38:15;31.97;;;21.50;;
20140;SDS011;10231;47.702;9.826;2023-03-01T03:40:43;31.23;;;21.17;;
20140;SDS011;10231;47.702;9.826;2023-03-01T03:43:21;31.70;;;20.77;;
20140;SDS011;10231;47.702;9.826;2023-03-01T03:45:48;29.73;;;21.43;;
20140;SDS011;10231;47.702;9.826;2023-03-01T03:48:15;31.40;;;22.73;;
20140;SDS011;10231;47.702;9.826;2023-03-01T03:50:41;29.00;;;20.80;;
20140;SDS011;10231;47.702;9.826;2023-03-01T03:53:12;31.70;;;21.23;;
20140;SDS011;10231;47.702;9.826;2023-03-01T03:55:38;30.20;;;20.90;;
20140;SDS011;10231;47.702;9.826;2023-03-01T03:58:07;30.80;;;20.73;;
20140;SDS011;10231;47.702;9.826;2023-03-01T04:00:38;30.57;;;20.47;;
20140;SDS011;10231;47.702;9.826;2023-03-01T04:03:06;31.03;;;20.37;;
20140;SDS011;10231;47.702;9.826;2023-03-01T04:05:33;28.27;;;18.83;;
20140;SDS011;10231;47.702;9.826;2023-03-01T04:07:59;30.13;;;21.87;;
20140;SDS011;10231;47.702;9.826;2023-03-01T04:10:28;32.43;;;20.37;;
20140;SDS011;10231;47.702;9.826;2023-03-01T04:12:54;29.70;;;20.57;;
20140;SDS011;10231;47.702;9.826;2023-03-01T04:15:24;30.40;;;20.87;;
20140;SDS011;10231;47.702;9.826;2023-03-01T04:17:51;30.43;;;21.07;;
20140;SDS011;10231;47.702;9.826;2023-03-01T04:20:19;31.57;;;19.80;;
20140;SDS011;10231;47.702;9.826;2023-03-01T04:22:56;31.10;;;21.40;;
20140;SDS011;10231;47.702;9.826;2023-03-01T04:25:23;31.20;;;20.70;;
20140;SDS011;10231;47.702;9.826;2023-03-01T04:27:49;30.47;;;20.43;;
20140;SDS011;10231;47.702;9.826;2023-03-01T04:30:15;29.30;;;20.03;;
20140;SDS011;10231;47.702;9.826;2023-03-01T04:32:41;30.07;;;20.23;;
20140;SDS011;10231;47.702;9.826;2023-03-01T04:35:07;31.00;;;21.30;;
20140;SDS011;10231;47.702;9.826;2023-03-01T04:37:33;30.07;;;20.73;;
20140;SDS011;10231;47.702;9.826;2023-03-01T04:39:59;30.60;;;20.70;;
20140;SDS011;10231;47.702;9.826;2023-03-01T04:42:26;33.73;;;21.13;;
20140;SDS011;10231;47.702;9.826;2023-03-01T04:44:51;32.90;;;19.87;;
20140;SDS011;10231;47.702;9.826;2023-03-01T04:47:17;33.53;;;21.30;;
20140;SDS011;10231;47.702;9.826;2023-03-01T04:49:42;34.20;;;21.90;;
20140;SDS011;10231;47.702;9.826;2023-03-01T04:52:08;29.67;;;20.47;;
20140;SDS011;10231;47.702;9.826;2023-03-01T04:54:34;31.07;;;21.83;;
20140;SDS011;10231;47.702;9.826;2023-03-01T04:57:01;31.23;;;21.53;;
20140;SDS011;10231;47.702;9.826;2023-03-01T04:59:28;31.23;;;21.63;;
20140;SDS011;10231;47.702;9.826;2023-03-01T05:01:54;30.10;;;20.97;;
20140;SDS011;10231;47.702;9.826;2023-03-01T05:04:24;29.47;;;21.10;;
20140;SDS011;10231;47.702;9.826;2023-03-01T05:06:50;34.37;;;21.20;;
20140;SDS011;10231;47.702;9.826;2023-03-01T05:09:16;31.07;;;21.00;;
20140;SDS011;10231;47.702;9.826;2023-03-01T05:11:42;32.47;;;21.23;;
20140;SDS011;10231;47.702;9.826;2023-03-01T05:14:08;30.40;;;19.87;;
20140;SDS011;10231;47.702;9.826;2023-03-01T05:16:34;30.73;;;20.67;;
20140;SDS011;10231;47.702;9.826;2023-03-01T05:19:01;29.50;;;21.23;;
20140;SDS011;10231;47.702;9.826;2023-03-01T05:21:38;29.77;;;21.23;;
20140;SDS011;10231;47.702;9.826;2023-03-01T05:24:23;32.27;;;22.10;;
20140;SDS011;10231;47.702;9.826;2023-03-01T05:26:49;32.73;;;21.83;;
20140;SDS011;10231;47.702;9.826;2023-03-01T05:29:16;32.73;;;21.83;;
20140;SDS011;10231;47.702;9.826;2023-03-01T05:31:43;28.47;;;19.97;;
20140;SDS011;10231;47.702;9.826;2023-03-01T05:34:08;33.37;;;21.43;;
20140;SDS011;10231;47.702;9.826;2023-03-01T05:36:34;34.80;;;22.80;;
20140;SDS011;10231;47.702;9.826;2023-03-01T05:39:00;33.40;;;22.07;;
20140;SDS011;10231;47.702;9.826;2023-03-01T05:41:25;32.27;;;21.77;;
20140;SDS011;10231;47.702;9.826;2023-03-01T05:43:51;30.13;;;21.00;;
20140;SDS011;10231;47.702;9.826;2023-03-01T05:46:16;29.17;;;21.17;;
20140;SDS011;10231;47.702;9.826;2023-03-01T05:48:42;32.60;;;21.20;;
20140;SDS011;10231;47.702;9.826;2023-03-01T05:51:08;30.90;;;20.73;;
20140;SDS011;10231;47.702;9.826;2023-03-01T05:53:34;31.80;;;22.73;;
20140;SDS011;10231;47.702;9.826;2023-03-01T05:56:02;32.47;;;22.63;;
20140;SDS011;10231;47.702;9.826;2023-03-01T05:58:28;30.97;;;20.70;;
20140;SDS011;10231;47.702;9.826;2023-03-01T06:00:54;31.57;;;20.93;;
20140;SDS011;10231;47.702;9.826;2023-03-01T06:03:19;33.50;;;22.53;;
20140;SDS011;10231;47.702;9.826;2023-03-01T06:05:45;33.83;;;21.23;;
20140;SDS011;10231;47.702;9.826;2023-03-01T06:08:11;34.30;;;22.83;;
20140;SDS011;10231;47.702;9.826;2023-03-01T06:10:37;29.20;;;21.20;;
20140;SDS011;10231;47.702;9.826;2023-03-01T06:13:03;30.87;;;21.30;;
20140;SDS011;10231;47.702;9.826;2023-03-01T06:15:29;31.67;;;22.00;;
20140;SDS011;10231;47.702;9.826;2023-03-01T06:17:54;29.57;;;20.40;;
20140;SDS011;10231;47.702;9.826;2023-03-01T06:20:25;32.10;;;20.90;;
20140;SDS011;10231;47.702;9.826;2023-03-01T06:22:52;32.73;;;22.47;;
20140;SDS011;10231;47.702;9.826;2023-03-01T06:25:19;30.77;;;20.77;;
20140;SDS011;10231;47.702;9.826;2023-03-01T06:27:46;33.67;;;21.97;;
20140;SDS011;10231;47.702;9.826;2023-03-01T06:30:14;34.27;;;21.53;;
20140;SDS011;10231;47.702;9.826;2023-03-01T06:32:42;30.77;;;21.07;;
20140;SDS011;10231;47.702;9.826;2023-03-01T06:35:09;33.83;;;21.43;;
20140;SDS011;10231;47.702;9.826;2023-03-01T06:37:35;33.17;;;22.40;;
20140;SDS011;10231;47.702;9.826;2023-03-01T06:40:02;35.67;;;22.13;;
20140;SDS011;10231;47.702;9.826;2023-03-01T06:42:36;32.10;;;20.67;;
20140;SDS011;10231;47.702;9.826;2023-03-01T06:45:04;31.10;;;21.23;;
20140;SDS011;10231;47.702;9.826;2023-03-01T06:47:32;31.33;;;20.03;;
20140;SDS011;10231;47.702;9.826;2023-03-01T06:49:58;28.50;;;20.03;;
20140;SDS011;10231;47.702;9.826;2023-03-01T06:52:25;29.37;;;20.70;;
20140;SDS011;10231;47.702;9.826;2023-03-01T06:54:50;28.20;;;20.07;;
20140;SDS011;10231;47.702;9.826;2023-03-01T06:57:17;30.53;;;20.23;;
20140;SDS011;10231;47.702;9.826;2023-03-01T06:59:42;33.67;;;22.03;;
20140;SDS011;10231;47.702;9.826;2023-03-01T07:02:11;30.77;;;20.60;;
20140;SDS011;10231;47.702;9.826;2023-03-01T07:04:37;30.40;;;21.07;;
20140;SDS011;10231;47.702;9.826;2023-03-01T07:07:04;33.97;;;21.37;;
20140;SDS011;10231;47.702;9.826;2023-03-01T07:09:30;31.87;;;19.83;;
20140;SDS011;10231;47.702;9.826;2023-03-01T07:11:56;30.17;;;19.97;;
20140;SDS011;10231;47.702;9.826;2023-03-01T07:14:22;31.67;;;20.90;;
20140;SDS011;10231;47.702;9.826;2023-03-01T07:16:49;31.17;;;20.67;;
20140;SDS011;10231;47.702;9.826;2023-03-01T07:19:15;31.70;;;20.40;;
20140;SDS011;10231;47.702;9.826;2023-03-01T07:21:40;30.00;;;19.93;;
20140;SDS011;10231;47.702;9.826;2023-03-01T07:24:06;30.20;;;19.83;;
20140;SDS011;10231;47.702;9.826;2023-03-01T07:26:33;29.77;;;20.97;;
20140;SDS011;10231;47.702;9.826;2023-03-01T07:28:59;28.60;;;20.37;;
20140;SDS011;10231;47.702;9.826;2023-03-01T07:31:26;32.13;;;21.33;;
20140;SDS011;10231;47.702;9.826;2023-03-01T07:33:53;32.83;;;20.83;;
20140;SDS011;10231;47.702;9.826;2023-03-01T07:36:19;30.33;;;20.83;;
20140;SDS011;10231;47.702;9.826;2023-03-01T07:38:45;29.00;;;19.43;;
20140;SDS011;10231;47.702;9.826;2023-03-01T07:41:11;29.47;;;18.90;;
20140;SDS011;10231;47.702;9.826;2023-03-01T07:43:36;32.07;;;20.47;;
20140;SDS011;10231;47.702;9.826;2023-03-01T07:46:02;31.47;;;20.47;;
20140;SDS011;10231;47.702;9.826;2023-03-01T07:48:29;30.87;;;20.57;;
20140;SDS011;10231;47.702;9.826;2023-03-01T07:50:59;32.63;;;20.33;;
20140;SDS011;10231;47.702;9.826;2023-03-01T07:53:26;29.30;;;19.93;;
20140;SDS011;10231;47.702;9.826;2023-03-01T07:56:05;28.47;;;20.10;;
20140;SDS011;10231;47.702;9.826;2023-03-01T07:58:36;31.07;;;20.17;;
20140;SDS011;10231;47.702;9.826;2023-03-01T08:01:07;28.73;;;19.63;;
20140;SDS011;10231;47.702;9.826;2023-03-01T08:03:34;27.90;;;18.90;;
20140;SDS011;10231;47.702;9.826;2023-03-01T08:06:01;28.70;;;19.80;;
20140;SDS011;10231;47.702;9.826;2023-03-01T08:08:28;28.53;;;19.30;;
20140;SDS011;10231;47.702;9.826;2023-03-01T08:10:58;30.10;;;20.77;;
20140;SDS011;10231;47.702;9.826;2023-03-01T08:13:25;29.47;;;19.37;;
20140;SDS011;10231;47.702;9.826;2023-03-01T08:15:51;29.77;;;19.53;;
20140;SDS011;10231;47.702;9.826;2023-03-01T08:18:18;31.37;;;20.83;;
20140;SDS011;10231;47.702;9.826;2023-03-01T08:20:44;27.73;;;19.53;;
20140;SDS011;10231;47.702;9.826;2023-03-01T08:23:10;30.00;;;18.37;;
20140;SDS011;10231;47.702;9.826;2023-03-01T08:25:36;28.30;;;19.13;;
20140;SDS011;10231;47.702;9.826;2023-03-01T08:28:02;30.33;;;19.00;;
20140;SDS011;10231;47.702;9.826;2023-03-01T08:30:27;26.50;;;18.63;;
20140;SDS011;10231;47.702;9.826;2023-03-01T08:32:53;29.30;;;19.47;;
20140;SDS011;10231;47.702;9.826;2023-03-01T08:35:19;28.93;;;19.33;;
20140;SDS011;10231;47.702;9.826;2023-03-01T08:37:45;32.13;;;20.20;;
20140;SDS011;10231;47.702;9.826;2023-03-01T08:40:11;25.17;;;17.90;;
20140;SDS011;10231;47.702;9.826;2023-03-01T08:42:38;28.90;;;19.00;;
20140;SDS011;10231;47.702;9.826;2023-03-01T08:45:04;28.70;;;18.77;;
20140;SDS011;10231;47.702;9.826;2023-03-01T08:47:30;26.93;;;17.73;;
20140;SDS011;10231;47.702;9.826;2023-03-01T08:49:56;27.90;;;17.63;;
20140;SDS011;10231;47.702;9.826;2023-03-01T08:52:21;24.20;;;17.47;;
20140;SDS011;10231;47.702;9.826;2023-03-01T08:54:49;27.20;;;18.10;;
20140;SDS011;10231;47.702;9.826;2023-03-01T08:57:14;25.57;;;17.67;;
20140;SDS011;10231;47.702;9.826;2023-03-01T08:59:40;26.97;;;19.10;;
20140;SDS011;10231;47.702;9.826;2023-03-01T09:02:10;26.37;;;17.27;;
20140;SDS011;10231;47.702;9.826;2023-03-01T09:04:38;29.73;;;19.37;;
20140;SDS011;10231;47.702;9.826;2023-03-01T09:07:04;26.30;;;17.70;;
20140;SDS011;10231;47.702;9.826;2023-03-01T09:09:30;28.20;;;18.87;;
20140;SDS011;10231;47.702;9.826;2023-03-01T09:11:56;27.10;;;17.43;;
20140;SDS011;10231;47.702;9.826;2023-03-01T09:14:21;28.33;;;19.27;;
20140;SDS011;10231;47.702;9.826;2023-03-01T09:16:47;27.03;;;18.03;;
20140;SDS011;10231;47.702;9.826;2023-03-01T09:19:13;27.57;;;17.90;;
20140;SDS011;10231;47.702;9.826;2023-03-01T09:21:39;25.57;;;17.40;;
20140;SDS011;10231;47.702;9.826;2023-03-01T09:24:05;27.73;;;18.80;;
20140;SDS011;10231;47.702;9.826;2023-03-01T09:26:40;23.40;;;17.00;;
20140;SDS011;10231;47.702;9.826;2023-03-01T09:29:06;24.33;;;17.50;;
20140;SDS011;10231;47.702;9.826;2023-03-01T09:31:32;27.43;;;18.00;;
20140;SDS011;10231;47.702;9.826;2023-03-01T09:33:57;23.67;;;17.10;;
20140;SDS011;10231;47.702;9.826;2023-03-01T09:36:24;23.93;;;17.13;;
20140;SDS011;10231;47.702;9.826;2023-03-01T09:38:52;22.37;;;15.93;;
20140;SDS011;10231;47.702;9.826;2023-03-01T09:43:48;26.47;;;18.20;;
20140;SDS011;10231;47.702;9.826;2023-03-01T09:46:21;23.30;;;17.17;;
20140;SDS011;10231;47.702;9.826;2023-03-01T09:48:49;23.60;;;16.97;;
20140;SDS011;10231;47.702;9.826;2023-03-01T09:51:31;24.97;;;17.00;;
20140;SDS011;10231;47.702;9.826;2023-03-01T09:53:59;23.40;;;16.47;;
20140;SDS011;10231;47.702;9.826;2023-03-01T09:56:29;24.27;;;17.37;;
20140;SDS011;10231;47.702;9.826;2023-03-01T09:59:06;23.60;;;15.73;;
20140;SDS011;10231;47.702;9.826;2023-03-01T10:04:36;25.03;;;17.23;;
20140;SDS011;10231;47.702;9.826;2023-03-01T10:09:57;23.43;;;16.73;;
20140;SDS011;10231;47.702;9.826;2023-03-01T10:12:26;23.07;;;16.67;;
20140;SDS011;10231;47.702;9.826;2023-03-01T10:15:07;24.23;;;16.20;;
20140;SDS011;10231;47.702;9.826;2023-03-01T10:17:40;20.40;;;14.83;;
20140;SDS011;10231;47.702;9.826;2023-03-01T10:20:30;20.50;;;15.17;;
20140;SDS011;10231;47.702;9.826;2023-03-01T10:23:11;21.47;;;15.07;;
20140;SDS011;10231;47.702;9.826;2023-03-01T10:28:31;21.73;;;15.57;;
20140;SDS011;10231;47.702;9.826;2023-03-01T10:31:23;23.63;;;15.73;;
20140;SDS011;10231;47.702;9.826;2023-03-01T10:33:54;23.37;;;16.40;;
20140;SDS011;10231;47.702;9.826;2023-03-01T10:36:21;24.93;;;16.93;;
20140;SDS011;10231;47.702;9.826;2023-03-01T10:38:54;22.03;;;15.30;;
20140;SDS011;10231;47.702;9.826;2023-03-01T10:41:23;22.30;;;15.50;;
20140;SDS011;10231;47.702;9.826;2023-03-01T10:43:52;21.93;;;15.70;;
20140;SDS011;10231;47.702;9.826;2023-03-01T10:51:45;21.33;;;15.87;;
20140;SDS011;10231;47.702;9.826;2023-03-01T10:54:31;21.23;;;15.80;;
20140;SDS011;10231;47.702;9.826;2023-03-01T10:57:02;20.20;;;15.43;;
20140;SDS011;10231;47.702;9.826;2023-03-01T10:59:33;23.13;;;16.17;;
20140;SDS011;10231;47.702;9.826;2023-03-01T11:05:02;22.70;;;15.93;;
20140;SDS011;10231;47.702;9.826;2023-03-01T11:07:48;28.83;;;18.03;;
20140;SDS011;10231;47.702;9.826;2023-03-01T11:10:23;22.70;;;16.60;;
20140;SDS011;10231;47.702;9.826;2023-03-01T11:12:54;23.40;;;16.00;;
20140;SDS011;10231;47.702;9.826;2023-03-01T11:15:39;23.40;;;15.90;;
20140;SDS011;10231;47.702;9.826;2023-03-01T11:18:04;21.93;;;16.57;;
20140;SDS011;10231;47.702;9.826;2023-03-01T11:20:44;24.13;;;16.17;;
20140;SDS011;10231;47.702;9.826;2023-03-01T11:23:12;27.97;;;17.07;;
20140;SDS011;10231;47.702;9.826;2023-03-01T11:25:43;24.83;;;16.37;;
20140;SDS011;10231;47.702;9.826;2023-03-01T11:28:29;21.53;;;15.90;;
20140;SDS011;10231;47.702;9.826;2023-03-01T11:31:02;23.93;;;17.40;;
20140;SDS011;10231;47.702;9.826;2023-03-01T11:33:44;24.33;;;16.77;;
20140;SDS011;10231;47.702;9.826;2023-03-01T11:38:53;22.03;;;15.57;;
20140;SDS011;10231;47.702;9.826;2023-03-01T11:41:20;21.33;;;15.93;;
20140;SDS011;10231;47.702;9.826;2023-03-01T11:44:03;24.37;;;16.87;;
20140;SDS011;10231;47.702;9.826;2023-03-01T11:46:40;26.07;;;17.40;;
20140;SDS011;10231;47.702;9.826;2023-03-01T11:52:09;22.90;;;16.10;;
20140;SDS011;10231;47.702;9.826;2023-03-01T12:00:26;24.23;;;16.87;;
20140;SDS011;10231;47.702;9.826;2023-03-01T12:05:58;22.87;;;16.60;;
20140;SDS011;10231;47.702;9.826;2023-03-01T12:08:55;23.30;;;16.00;;
20140;SDS011;10231;47.702;9.826;2023-03-01T12:11:48;23.80;;;16.80;;
20140;SDS011;10231;47.702;9.826;2023-03-01T12:22:47;22.43;;;16.27;;
20140;SDS011;10231;47.702;9.826;2023-03-01T12:25:28;23.33;;;16.60;;
20140;SDS011;10231;47.702;9.826;2023-03-01T12:30:41;23.03;;;15.77;;
20140;SDS011;10231;47.702;9.826;2023-03-01T12:36:09;23.10;;;16.07;;
20140;SDS011;10231;47.702;9.826;2023-03-01T12:41:27;21.87;;;16.13;;
20140;SDS011;10231;47.702;9.826;2023-03-01T12:49:54;22.37;;;15.77;;
20140;SDS011;10231;47.702;9.826;2023-03-01T12:55:06;23.50;;;16.80;;
20140;SDS011;10231;47.702;9.826;2023-03-01T12:57:47;23.87;;;17.30;;
20140;SDS011;10231;47.702;9.826;2023-03-01T13:00:56;21.37;;;15.43;;
20140;SDS011;10231;47.702;9.826;2023-03-01T13:03:36;21.93;;;16.00;;
20140;SDS011;10231;47.702;9.826;2023-03-01T13:08:49;22.77;;;16.40;;
20140;SDS011;10231;47.702;9.826;2023-03-01T13:11:25;20.80;;;15.37;;
20140;SDS011;10231;47.702;9.826;2023-03-01T13:13:51;20.90;;;15.50;;
20140;SDS011;10231;47.702;9.826;2023-03-01T13:16:38;23.33;;;15.93;;
20140;SDS011;10231;47.702;9.826;2023-03-01T13:21:46;20.97;;;15.80;;
20140;SDS011;10231;47.702;9.826;2023-03-01T13:24:27;21.07;;;15.37;;
20140;SDS011;10231;47.702;9.826;2023-03-01T13:29:31;23.20;;;16.03;;
20140;SDS011;10231;47.702;9.826;2023-03-01T13:32:37;22.63;;;15.37;;
20140;SDS011;10231;47.702;9.826;2023-03-01T13:37:43;24.53;;;16.60;;
20140;SDS011;10231;47.702;9.826;2023-03-01T13:42:47;21.20;;;15.40;;
20140;SDS011;10231;47.702;9.826;2023-03-01T13:45:21;22.73;;;15.50;;
20140;SDS011;10231;47.702;9.826;2023-03-01T13:48:11;21.83;;;15.83;;
20140;SDS011;10231;47.702;9.826;2023-03-01T13:50:48;21.93;;;15.37;;
20140;SDS011;10231;47.702;9.826;2023-03-01T13:53:21;21.73;;;16.50;;
20140;SDS011;10231;47.702;9.826;2023-03-01T13:55:58;25.27;;;16.50;;
20140;SDS011;10231;47.702;9.826;2023-03-01T13:58:43;21.40;;;15.53;;
20140;SDS011;10231;47.702;9.826;2023-03-01T14:01:24;21.93;;;16.40;;
20140;SDS011;10231;47.702;9.826;2023-03-01T14:03:53;22.53;;;15.40;;
20140;SDS011;10231;47.702;9.826;2023-03-01T14:06:29;21.13;;;15.37;;
20140;SDS011;10231;47.702;9.826;2023-03-01T14:11:38;22.77;;;16.87;;
20140;SDS011;10231;47.702;9.826;2023-03-01T14:14:40;21.67;;;15.50;;
20140;SDS011;10231;47.702;9.826;2023-03-01T14:17:17;22.57;;;15.13;;
20140;SDS011;10231;47.702;9.826;2023-03-01T14:22:46;21.70;;;16.07;;
20140;SDS011;10231;47.702;9.826;2023-03-01T14:25:21;21.40;;;15.37;;
20140;SDS011;10231;47.702;9.826;2023-03-01T14:27:56;20.33;;;15.10;;
20140;SDS011;10231;47.702;9.826;2023-03-01T14:30:44;23.50;;;16.90;;
20140;SDS011;10231;47.702;9.826;2023-03-01T14:33:21;23.50;;;16.20;;
20140;SDS011;10231;47.702;9.826;2023-03-01T14:36:00;22.67;;;16.53;;
20140;SDS011;10231;47.702;9.826;2023-03-01T14:38:48;20.47;;;16.30;;
20140;SDS011;10231;47.702;9.826;2023-03-01T14:41:17;23.17;;;16.80;;
20140;SDS011;10231;47.702;9.826;2023-03-01T14:43:46;25.33;;;17.07;;
20140;SDS011;10231;47.702;9.826;2023-03-01T14:46:19;27.10;;;20.13;;
20140;SDS011;10231;47.702;9.826;2023-03-01T14:48:51;23.13;;;16.77;;
20140;SDS011;10231;47.702;9.826;2023-03-01T14:51:21;24.00;;;17.30;;
20140;SDS011;10231;47.702;9.826;2023-03-01T14:53:47;23.37;;;16.20;;
20140;SDS011;10231;47.702;9.826;2023-03-01T14:56:14;22.43;;;16.27;;
20140;SDS011;10231;47.702;9.826;2023-03-01T14:58:42;25.53;;;18.50;;
20140;SDS011;10231;47.702;9.826;2023-03-01T15:01:10;24.20;;;17.00;;
20140;SDS011;10231;47.702;9.826;2023-03-01T15:03:43;24.20;;;16.57;;
20140;SDS011;10231;47.702;9.826;2023-03-01T15:06:12;25.23;;;18.67;;
20140;SDS011;10231;47.702;9.826;2023-03-01T15:08:44;25.57;;;18.00;;
20140;SDS011;10231;47.702;9.826;2023-03-01T15:11:22;27.33;;;19.13;;
20140;SDS011;10231;47.702;9.826;2023-03-01T15:13:52;29.70;;;19.70;;
20140;SDS011;10231;47.702;9.826;2023-03-01T15:16:18;25.83;;;18.97;;
20140;SDS011;10231;47.702;9.826;2023-03-01T15:18:51;27.83;;;18.03;;
20140;SDS011;10231;47.702;9.826;2023-03-01T15:21:23;26.73;;;19.03;;
20140;SDS011;10231;47.702;9.826;2023-03-01T15:24:17;25.73;;;18.07;;
20140;SDS011;10231;47.702;9.826;2023-03-01T15:26:55;26.73;;;18.37;;
20140;SDS011;10231;47.702;9.826;2023-03-01T15:29:31;26.07;;;19.20;;
20140;SDS011;10231;47.702;9.826;2023-03-01T15:32:05;26.97;;;18.33;;
20140;SDS011;10231;47.702;9.826;2023-03-01T15:34:47;25.60;;;18.47;;
20140;SDS011;10231;47.702;9.826;2023-03-01T15:40:18;24.87;;;17.43;;
20140;SDS011;10231;47.702;9.826;2023-03-01T15:42:56;24.80;;;17.67;;
20140;SDS011;10231;47.702;9.826;2023-03-01T15:45:24;23.73;;;17.53;;
20140;SDS011;10231;47.702;9.826;2023-03-01T15:47:56;24.97;;;17.70;;
20140;SDS011;10231;47.702;9.826;2023-03-01T15:50:33;26.87;;;20.00;;
20140;SDS011;10231;47.702;9.826;2023-03-01T15:53:04;28.27;;;19.10;;
20140;SDS011;10231;47.702;9.826;2023-03-01T15:55:33;25.07;;;18.43;;
20140;SDS011;10231;47.702;9.826;2023-03-01T15:57:59;26.60;;;18.70;;
20140;SDS011;10231;47.702;9.826;2023-03-01T16:00:32;24.13;;;17.37;;
20140;SDS011;10231;47.702;9.826;2023-03-01T16:02:58;24.70;;;17.60;;
20140;SDS011;10231;47.702;9.826;2023-03-01T16:05:25;25.60;;;18.57;;